Time;durP1;ratioP1;P1;durP2;ratioP2;P2;SDS_P1;SDS_P2;PMS_P1;PMS_P2;Temp;Humidity;BMP_temperature;BMP_pressure;BME280_temperature;BME280_humidity;BME280_pressure;Samples;Min_cycle;Max_cycle;Signal;HPM_P1;HPM_P2
2022/07/04 00:01:41;;;;;;;4.50;0.82;;;17.70;94.00;;;;;;5047721;28;20091;-56
2022/07/04 00:04:08;;;;;;;3.47;1.50;;;17.70;94.10;;;;;;5048027;28;20132;-55
2022/07/04 00:06:35;;;;;;;3.58;0.80;;;17.60;94.40;;;;;;5048008;28;20476;-58
2022/07/04 00:09:02;;;;;;;2.03;1.23;;;17.60;94.60;;;;;;5047909;28;20162;-54
2022/07/04 00:11:28;;;;;;;3.50;1.55;;;17.60;94.80;;;;;;5048222;28;20091;-54
2022/07/04 00:13:55;;;;;;;5.55;1.63;;;17.60;95.10;;;;;;5047751;28;20516;-56
2022/07/04 00:16:22;;;;;;;2.03;1.23;;;17.50;95.40;;;;;;5048147;28;20051;-53
2022/07/04 00:18:49;;;;;;;5.25;1.83;;;17.40;95.60;;;;;;5048044;28;20488;-54
2022/07/04 00:21:15;;;;;;;4.25;1.55;;;17.30;95.80;;;;;;5047844;28;20140;-55
2022/07/04 00:23:42;;;;;;;3.63;0.90;;;17.30;96.00;;;;;;5048019;28;20041;-56
2022/07/04 00:26:09;;;;;;;2.38;1.20;;;17.20;96.00;;;;;;5047663;28;20053;-54
2022/07/04 00:28:36;;;;;;;5.63;1.77;;;17.20;96.10;;;;;;5047596;28;20041;-54
2022/07/04 00:31:03;;;;;;;3.05;1.90;;;17.20;96.10;;;;;;5047512;28;20083;-58
2022/07/04 00:33:30;;;;;;;3.00;0.80;;;17.10;96.20;;;;;;5046310;28;20547;-58
2022/07/04 00:35:57;;;;;;;2.35;0.93;;;17.10;96.40;;;;;;5047729;28;20551;-57
2022/07/04 00:38:23;;;;;;;3.67;1.30;;;17.00;96.60;;;;;;5047528;28;20125;-56
2022/07/04 00:40:50;;;;;;;3.80;1.50;;;17.00;96.40;;;;;;5047481;28;20045;-58
2022/07/04 00:43:23;;;;;;;1.23;0.80;;;16.90;96.40;;;;;;5047669;28;20124;-56
2022/07/04 00:45:50;;;;;;;2.65;1.08;;;16.80;97.20;;;;;;5047352;28;20545;-55
2022/07/04 00:48:18;;;;;;;5.85;1.35;;;16.70;97.00;;;;;;5047763;28;20080;-57
2022/07/04 00:50:46;;;;;;;3.53;1.48;;;16.70;96.70;;;;;;5047600;28;20092;-59
2022/07/04 00:53:13;;;;;;;5.32;1.23;;;16.60;96.90;;;;;;4693349;28;10000659;-56
2022/07/04 00:55:40;;;;;;;7.00;1.40;;;16.60;96.70;;;;;;5043589;28;20045;-55
2022/07/04 00:58:07;;;;;;;2.47;1.20;;;16.60;96.70;;;;;;5047421;28;20073;-55
2022/07/04 01:00:34;;;;;;;3.47;1.02;;;16.60;96.80;;;;;;5047313;28;20087;-57
2022/07/04 01:03:01;;;;;;;8.77;1.60;;;16.60;96.70;;;;;;5049210;28;20575;-57
2022/07/04 01:05:28;;;;;;;1.95;0.82;;;16.60;96.70;;;;;;5051521;28;20049;-55
2022/07/04 01:07:54;;;;;;;2.47;1.25;;;16.60;97.00;;;;;;5050224;28;20255;-56
2022/07/04 01:10:21;;;;;;;5.55;1.35;;;16.60;96.70;;;;;;5046566;28;20050;-55
2022/07/04 01:12:48;;;;;;;7.28;1.65;;;16.60;96.60;;;;;;5047622;28;20579;-56
2022/07/04 01:15:15;;;;;;;5.07;1.40;;;16.60;96.60;;;;;;5051205;28;20076;-55
2022/07/04 01:17:41;;;;;;;6.22;1.45;;;16.60;96.70;;;;;;5051101;28;20063;-54
2022/07/04 01:20:12;;;;;;;3.03;1.00;;;16.60;96.70;;;;;;5051005;28;20408;-56
2022/07/04 01:22:39;;;;;;;7.82;1.25;;;16.60;96.70;;;;;;5051050;28;20575;-56
2022/07/04 01:25:07;;;;;;;3.60;1.35;;;16.50;96.50;;;;;;5049933;28;20077;-54
2022/07/04 01:27:34;;;;;;;3.25;1.40;;;16.50;96.60;;;;;;5050955;28;20171;-54
2022/07/04 01:30:00;;;;;;;6.22;1.73;;;16.50;96.60;;;;;;5051209;28;20083;-56
2022/07/04 01:32:28;;;;;;;4.25;1.38;;;16.50;96.60;;;;;;5050988;28;20072;-55
2022/07/04 01:34:54;;;;;;;3.60;1.27;;;16.50;96.70;;;;;;5051233;28;20131;-56
2022/07/04 01:37:21;;;;;;;2.65;1.45;;;16.50;96.90;;;;;;5047182;28;20133;-54
2022/07/04 01:39:48;;;;;;;2.97;1.20;;;16.40;97.10;;;;;;5050863;28;20568;-55
2022/07/04 01:42:14;;;;;;;4.03;1.40;;;16.40;97.20;;;;;;5050368;28;20083;-55
2022/07/04 01:44:41;;;;;;;2.83;1.27;;;16.30;97.40;;;;;;5050827;28;20048;-53
2022/07/04 01:47:08;;;;;;;3.25;1.10;;;16.20;97.70;;;;;;5050736;28;20079;-56
2022/07/04 01:49:35;;;;;;;3.85;1.25;;;16.00;98.00;;;;;;5050952;28;20075;-55
2022/07/04 01:52:02;;;;;;;1.50;0.90;;;15.90;98.40;;;;;;5050414;28;20076;-55
2022/07/04 01:54:29;;;;;;;2.28;0.85;;;15.80;98.90;;;;;;5049195;28;20584;-55
2022/07/04 01:56:55;;;;;;;5.28;1.52;;;15.80;98.80;;;;;;5050561;28;20458;-56
2022/07/04 02:01:29;;;;;;;1.92;1.00;;;15.70;99.00;;;;;;5050458;28;20076;-54
2022/07/04 02:02:09;;;;;;;2.72;1.52;;;15.70;99.60;;;;;;5043606;28;20068;-53
2022/07/04 02:04:36;;;;;;;4.72;1.10;;;15.60;99.60;;;;;;5050170;28;20065;-55
2022/07/04 02:07:03;;;;;;;3.03;1.40;;;15.50;99.90;;;;;;5048874;28;20554;-54
2022/07/04 02:09:30;;;;;;;2.47;1.20;;;15.50;99.90;;;;;;5050339;28;20079;-56
2022/07/04 02:14:43;;;;;;;3.28;1.38;;;15.40;99.90;;;;;;5048895;28;20131;-56
2022/07/04 02:17:11;;;;;;;2.28;1.23;;;15.40;99.90;;;;;;5050028;28;20052;-54
2022/07/04 02:19:37;;;;;;;4.45;1.20;;;15.30;99.90;;;;;;5050089;28;20045;-55
2022/07/04 02:22:04;;;;;;;4.82;2.03;;;15.30;99.90;;;;;;5050021;28;20083;-57
2022/07/04 02:24:31;;;;;;;2.90;1.48;;;15.20;99.90;;;;;;5050021;28;20129;-56
2022/07/04 02:26:58;;;;;;;3.95;1.50;;;15.10;99.90;;;;;;5049846;28;20055;-54
2022/07/04 02:29:24;;;;;;;4.75;1.50;;;15.10;99.90;;;;;;5049820;28;20129;-55
2022/07/04 02:31:51;;;;;;;7.53;1.65;;;15.00;99.90;;;;;;5049724;28;20135;-52
2022/07/04 02:34:18;;;;;;;3.47;1.23;;;14.90;99.90;;;;;;5049702;28;20080;-53
2022/07/04 02:36:45;;;;;;;2.30;1.20;;;14.80;99.90;;;;;;5049489;28;20076;-55
2022/07/04 02:39:12;;;;;;;5.10;1.58;;;14.80;99.90;;;;;;5049435;28;20131;-55
2022/07/04 02:41:38;;;;;;;4.40;1.20;;;14.80;99.90;;;;;;5049846;28;20224;-56
2022/07/04 02:44:05;;;;;;;4.50;2.17;;;14.80;99.90;;;;;;5048405;28;20049;-56
2022/07/04 02:46:33;;;;;;;3.40;1.48;;;14.70;99.90;;;;;;5049601;28;20111;-55
2022/07/04 02:49:00;;;;;;;6.82;1.25;;;14.70;99.90;;;;;;5049846;28;20057;-52
2022/07/04 02:51:27;;;;;;;1.83;1.00;;;14.70;99.90;;;;;;5049513;28;20041;-55
2022/07/04 02:53:54;;;;;;;2.55;1.10;;;14.70;99.90;;;;;;5049493;28;20045;-56
2022/07/04 02:56:21;;;;;;;2.65;1.42;;;14.60;99.90;;;;;;5049524;28;20522;-54
2022/07/04 02:58:47;;;;;;;3.40;1.15;;;14.60;99.90;;;;;;5049419;28;20072;-54
2022/07/04 03:01:14;;;;;;;4.10;1.27;;;14.70;99.90;;;;;;5049399;28;20084;-56
2022/07/04 03:03:41;;;;;;;2.22;1.30;;;14.70;99.90;;;;;;5048331;28;20041;-55
2022/07/04 03:06:08;;;;;;;2.45;1.10;;;14.70;99.90;;;;;;5049748;28;20132;-56
2022/07/04 03:08:35;;;;;;;4.15;1.42;;;14.60;99.90;;;;;;5049412;28;20124;-56
2022/07/04 03:11:02;;;;;;;3.33;1.50;;;14.60;99.90;;;;;;5049240;28;20129;-56
2022/07/04 03:13:29;;;;;;;3.30;1.30;;;14.50;99.90;;;;;;5048349;28;20160;-56
2022/07/04 03:15:55;;;;;;;4.85;1.50;;;14.40;99.90;;;;;;5049068;28;20452;-57
2022/07/04 03:18:22;;;;;;;3.33;1.20;;;14.30;99.90;;;;;;5049334;28;20118;-55
2022/07/04 03:20:49;;;;;;;2.72;1.00;;;14.30;99.90;;;;;;5048831;28;20587;-55
2022/07/04 03:23:16;;;;;;;2.33;1.20;;;14.30;99.90;;;;;;5048992;28;20048;-56
2022/07/04 03:25:43;;;;;;;2.63;1.15;;;14.20;99.90;;;;;;5048494;28;20083;-55
2022/07/04 03:28:10;;;;;;;11.35;2.35;;;14.20;99.90;;;;;;5049635;28;20080;-56
2022/07/04 03:30:36;;;;;;;2.95;1.10;;;14.10;99.90;;;;;;5048780;28;20080;-56
2022/07/04 03:33:03;;;;;;;3.83;1.20;;;14.00;99.90;;;;;;5047338;28;20071;-56
2022/07/04 03:35:30;;;;;;;2.22;0.98;;;14.00;99.90;;;;;;5048245;28;20199;-53
2022/07/04 03:37:57;;;;;;;3.85;1.35;;;14.00;99.90;;;;;;5048746;28;20073;-56
2022/07/04 03:40:24;;;;;;;3.00;1.33;;;14.00;99.90;;;;;;5047341;28;20087;-54
2022/07/04 03:42:50;;;;;;;2.88;1.20;;;13.90;99.90;;;;;;5048117;28;20459;-54
2022/07/04 03:45:17;;;;;;;2.03;1.13;;;13.90;99.90;;;;;;5048661;28;20059;-57
2022/07/04 03:47:44;;;;;;;2.70;1.25;;;13.90;99.90;;;;;;5048637;28;20072;-57
2022/07/04 03:50:11;;;;;;;4.20;1.05;;;13.90;99.90;;;;;;5048356;28;20136;-53
2022/07/04 03:52:38;;;;;;;2.67;1.10;;;13.90;99.90;;;;;;5048463;28;20571;-56
2022/07/04 03:55:05;;;;;;;5.78;1.48;;;14.00;99.90;;;;;;5048236;28;20118;-56
2022/07/04 03:57:32;;;;;;;3.50;1.30;;;14.00;99.90;;;;;;5047848;28;20139;-57
2022/07/04 03:59:58;;;;;;;3.45;1.35;;;14.00;99.90;;;;;;5048327;28;20384;-56
2022/07/04 04:02:25;;;;;;;7.40;1.27;;;14.00;99.90;;;;;;5044381;28;20598;-57
2022/07/04 04:07:37;;;;;;;4.22;1.40;;;14.00;99.90;;;;;;5046749;28;20140;-57
2022/07/04 04:10:04;;;;;;;6.15;1.83;;;13.90;99.90;;;;;;5048202;28;20128;-56
2022/07/04 04:12:31;;;;;;;2.20;1.23;;;13.90;99.90;;;;;;5044558;28;20119;-56
2022/07/04 04:14:58;;;;;;;3.80;1.40;;;13.90;99.90;;;;;;5048453;28;20076;-56
2022/07/04 04:17:25;;;;;;;6.05;1.48;;;14.00;99.90;;;;;;5047883;28;20070;-55
2022/07/04 04:19:51;;;;;;;5.72;1.55;;;14.00;99.90;;;;;;5048032;28;20086;-50
2022/07/04 04:22:18;;;;;;;1.80;0.93;;;14.10;99.90;;;;;;5047672;28;20140;-56
2022/07/04 04:24:45;;;;;;;2.42;1.20;;;14.10;99.90;;;;;;5047865;28;20073;-56
2022/07/04 04:27:12;;;;;;;2.58;0.90;;;14.20;99.90;;;;;;5047555;28;20174;-55
2022/07/04 04:29:39;;;;;;;7.03;1.13;;;14.20;99.90;;;;;;5047950;28;20128;-54
2022/07/04 04:32:06;;;;;;;3.72;1.40;;;14.20;99.90;;;;;;5047770;28;20129;-56
2022/07/04 04:34:33;;;;;;;1.45;1.02;;;14.20;99.90;;;;;;5047680;28;20083;-52
2022/07/04 04:37:00;;;;;;;2.28;1.08;;;14.20;99.90;;;;;;5047034;28;20041;-55
2022/07/04 04:39:27;;;;;;;4.13;1.13;;;14.30;99.90;;;;;;5047920;28;20122;-56
2022/07/04 04:41:54;;;;;;;1.27;0.90;;;14.30;99.90;;;;;;5047741;28;20080;-52
2022/07/04 04:44:20;;;;;;;2.20;1.10;;;14.30;99.90;;;;;;5047667;28;20077;-55
2022/07/04 04:46:47;;;;;;;3.88;0.95;;;14.30;99.90;;;;;;5047440;28;20087;-54
2022/07/04 04:49:14;;;;;;;4.40;0.70;;;14.30;99.90;;;;;;5047992;28;20076;-56
2022/07/04 04:51:41;;;;;;;1.60;1.08;;;14.30;99.90;;;;;;5047421;28;20563;-56
2022/07/04 04:54:08;;;;;;;2.83;1.20;;;14.20;99.90;;;;;;5046448;28;20132;-56
2022/07/04 04:56:34;;;;;;;1.60;0.98;;;14.20;99.90;;;;;;5047626;28;20057;-56
2022/07/04 04:59:01;;;;;;;5.53;1.42;;;14.10;99.90;;;;;;5047305;28;20128;-53
2022/07/04 05:01:28;;;;;;;5.47;1.15;;;14.10;99.90;;;;;;5047639;28;20243;-57
2022/07/04 05:04:07;;;;;;;1.83;1.17;;;14.10;99.90;;;;;;5046166;28;20057;-56
2022/07/04 05:06:34;;;;;;;3.42;1.13;;;14.10;99.90;;;;;;5046661;28;20144;-55
2022/07/04 05:09:01;;;;;;;4.43;1.33;;;14.00;99.90;;;;;;5062664;28;20041;-56
2022/07/04 05:11:28;;;;;;;5.13;2.35;;;14.10;99.90;;;;;;5045915;28;20123;-56
2022/07/04 05:13:55;;;;;;;5.15;1.23;;;14.10;99.90;;;;;;5047007;28;20068;-55
2022/07/04 05:16:22;;;;;;;3.63;1.27;;;14.10;99.90;;;;;;5047319;28;20049;-55
2022/07/04 05:18:48;;;;;;;5.57;1.65;;;14.00;99.90;;;;;;5047111;28;20492;-57
2022/07/04 05:21:15;;;;;;;2.85;1.23;;;14.10;99.90;;;;;;5047108;28;20133;-54
2022/07/04 05:23:42;;;;;;;4.85;1.50;;;14.10;99.90;;;;;;5047363;28;20120;-58
2022/07/04 05:26:09;;;;;;;6.10;1.20;;;14.10;99.90;;;;;;5047054;28;20564;-53
2022/07/04 05:28:35;;;;;;;4.60;1.20;;;14.10;99.90;;;;;;5047058;28;20112;-55
2022/07/04 05:31:02;;;;;;;2.80;1.30;;;14.20;99.90;;;;;;5046245;28;20286;-57
2022/07/04 05:33:29;;;;;;;4.50;1.60;;;14.20;99.90;;;;;;5046839;28;20131;-55
2022/07/04 05:35:56;;;;;;;1.70;1.08;;;14.20;99.90;;;;;;5046603;28;20079;-57
2022/07/04 05:38:23;;;;;;;2.70;1.10;;;14.20;99.90;;;;;;5045980;28;20087;-56
2022/07/04 05:40:49;;;;;;;2.25;0.93;;;14.30;99.90;;;;;;5047122;28;20072;-54
2022/07/04 05:43:16;;;;;;;5.13;1.30;;;14.30;99.90;;;;;;5046909;28;20136;-56
2022/07/04 05:45:44;;;;;;;3.47;1.17;;;14.40;99.90;;;;;;5046953;28;20033;-55
2022/07/04 05:48:10;;;;;;;3.50;1.65;;;14.50;99.90;;;;;;5047481;28;20044;-57
2022/07/04 05:50:37;;;;;;;2.80;1.10;;;14.50;99.90;;;;;;5049425;28;20099;-55
2022/07/04 05:53:04;;;;;;;2.35;0.73;;;14.50;99.90;;;;;;5050457;28;20092;-58
2022/07/04 05:55:31;;;;;;;4.85;1.50;;;14.50;99.90;;;;;;5050288;28;20080;-54
2022/07/04 05:57:58;;;;;;;3.40;1.33;;;14.50;99.90;;;;;;5050361;28;20449;-56
2022/07/04 06:00:24;;;;;;;6.45;0.90;;;14.60;99.90;;;;;;5050210;28;20095;-57
2022/07/04 06:02:51;;;;;;;8.75;0.93;;;14.60;99.90;;;;;;5050110;28;20437;-57
2022/07/04 06:05:18;;;;;;;8.85;1.92;;;14.70;99.90;;;;;;5051684;28;20084;-57
2022/07/04 06:07:45;;;;;;;2.00;1.10;;;14.70;99.90;;;;;;5049956;28;20407;-56
2022/07/04 06:10:12;;;;;;;3.50;0.90;;;14.70;99.90;;;;;;5050220;28;20077;-58
2022/07/04 06:12:38;;;;;;;3.55;1.35;;;14.80;99.90;;;;;;5049993;28;20088;-55
2022/07/04 06:15:06;;;;;;;2.45;0.75;;;14.80;99.90;;;;;;5049514;28;20041;-58
2022/07/04 06:17:33;;;;;;;2.58;1.00;;;14.90;99.90;;;;;;5050121;28;20128;-58
2022/07/04 06:20:00;;;;;;;6.20;1.05;;;14.90;99.90;;;;;;5049948;28;20096;-57
2022/07/04 06:22:26;;;;;;;3.13;1.00;;;14.90;99.90;;;;;;5049741;28;20053;-56
2022/07/04 06:24:53;;;;;;;2.33;1.00;;;14.90;99.90;;;;;;5048055;28;20080;-57
2022/07/04 06:27:20;;;;;;;9.02;1.30;;;15.00;99.90;;;;;;5049685;28;20049;-58
2022/07/04 06:29:47;;;;;;;4.78;1.48;;;15.00;99.90;;;;;;5049363;28;20543;-55
2022/07/04 06:32:13;;;;;;;2.88;1.20;;;14.90;99.90;;;;;;5049371;28;20052;-57
2022/07/04 06:37:26;;;;;;;2.30;1.08;;;14.80;99.90;;;;;;5049115;28;20077;-59
2022/07/04 06:39:52;;;;;;;5.28;1.45;;;14.80;99.90;;;;;;5048223;28;20393;-58
2022/07/04 06:42:19;;;;;;;4.43;0.90;;;14.70;99.90;;;;;;5049121;28;20124;-58
2022/07/04 06:44:46;;;;;;;3.65;1.20;;;14.80;99.90;;;;;;5048488;28;20081;-57
2022/07/04 06:47:13;;;;;;;4.68;1.40;;;14.90;99.90;;;;;;5047107;28;20060;-58
2022/07/04 06:49:40;;;;;;;4.75;1.42;;;14.90;99.90;;;;;;5046147;28;20042;-57
2022/07/04 06:52:07;;;;;;;2.15;0.88;;;14.90;99.90;;;;;;5048578;28;20123;-59
2022/07/04 06:54:34;;;;;;;3.35;1.73;;;15.00;99.90;;;;;;5048604;28;20139;-59
2022/07/04 06:57:01;;;;;;;2.38;0.90;;;14.90;99.90;;;;;;5048757;28;20041;-59
2022/07/04 06:59:47;;;;;;;2.20;1.00;;;15.00;99.90;;;;;;5050508;28;20492;-57
2022/07/04 07:02:14;;;;;;;3.50;1.00;;;15.00;99.90;;;;;;5048608;28;20052;-59
2022/07/04 07:04:42;;;;;;;1.63;1.02;;;15.10;99.90;;;;;;5047309;28;20081;-60
2022/07/04 07:07:09;;;;;;;4.82;0.98;;;15.10;99.90;;;;;;5048833;28;20376;-59
2022/07/04 07:09:36;;;;;;;2.78;1.30;;;15.20;99.90;;;;;;5048624;28;20076;-58
2022/07/04 07:12:03;;;;;;;1.92;1.05;;;15.20;99.90;;;;;;5048582;28;20051;-59
2022/07/04 07:14:30;;;;;;;4.35;1.00;;;15.30;99.90;;;;;;5048506;28;20068;-58
2022/07/04 07:16:58;;;;;;;2.75;0.93;;;15.30;99.90;;;;;;5048560;28;20198;-57
2022/07/04 07:19:25;;;;;;;2.70;0.70;;;15.40;99.90;;;;;;5048246;28;20071;-59
2022/07/04 07:21:52;;;;;;;3.83;1.10;;;15.50;99.90;;;;;;5048028;28;20045;-59
2022/07/04 07:24:19;;;;;;;2.60;0.88;;;15.60;99.90;;;;;;5048604;28;20041;-59
2022/07/04 07:26:45;;;;;;;3.80;0.95;;;15.70;99.90;;;;;;5048154;28;20053;-57
2022/07/04 07:29:12;;;;;;;6.03;0.90;;;15.80;99.90;;;;;;5048052;28;20087;-58
2022/07/04 07:31:39;;;;;;;6.32;1.40;;;15.80;99.90;;;;;;5048110;28;20076;-59
2022/07/04 07:34:06;;;;;;;0.88;0.68;;;15.80;99.90;;;;;;5048499;28;20072;-59
2022/07/04 07:36:33;;;;;;;2.63;0.57;;;15.90;99.90;;;;;;5048173;28;20512;-59
2022/07/04 07:39:00;;;;;;;10.43;1.92;;;16.00;99.90;;;;;;5047780;28;20572;-58
2022/07/04 07:41:27;;;;;;;6.50;1.33;;;16.00;99.70;;;;;;5048313;28;20076;-58
2022/07/04 07:43:53;;;;;;;2.53;1.25;;;16.10;99.80;;;;;;5048043;28;20128;-59
2022/07/04 07:46:20;;;;;;;3.00;0.90;;;16.20;99.70;;;;;;5047664;28;20065;-59
2022/07/04 07:48:47;;;;;;;2.55;1.00;;;16.20;98.90;;;;;;5047132;28;20045;-59
2022/07/04 07:51:15;;;;;;;2.25;0.60;;;16.20;98.80;;;;;;5044100;28;20247;-59
2022/07/04 07:53:42;;;;;;;1.65;0.70;;;16.30;98.10;;;;;;5047921;28;20072;-59
2022/07/04 07:56:29;;;;;;;1.70;0.68;;;16.30;97.10;;;;;;5047661;28;20100;-58
2022/07/04 07:58:56;;;;;;;1.27;0.63;;;16.40;97.80;;;;;;5047424;28;20045;-60
2022/07/04 08:01:22;;;;;;;5.55;0.90;;;16.40;97.60;;;;;;5047499;28;20076;-58
2022/07/04 08:06:39;;;;;;;2.47;0.60;;;16.60;97.40;;;;;;5047505;28;20059;-59
2022/07/04 08:09:06;;;;;;;3.38;1.05;;;16.60;96.90;;;;;;5046333;28;20084;-59
2022/07/04 08:11:32;;;;;;;1.85;0.70;;;16.70;95.70;;;;;;5046924;28;20048;-59
2022/07/04 08:13:59;;;;;;;2.03;0.85;;;16.70;96.30;;;;;;5047546;28;20535;-60
2022/07/04 08:16:26;;;;;;;1.95;0.90;;;16.70;96.30;;;;;;5047595;28;20082;-58
2022/07/04 08:19:13;;;;;;;2.35;0.57;;;16.80;95.70;;;;;;5047381;28;20041;-59
2022/07/04 08:21:40;;;;;;;0.77;0.60;;;16.80;95.80;;;;;;5047298;28;20522;-59
2022/07/04 08:24:26;;;;;;;7.68;0.70;;;16.90;95.60;;;;;;5046977;28;20124;-59
2022/07/04 08:26:53;;;;;;;1.08;0.75;;;17.00;95.40;;;;;;5062541;28;20131;-58
2022/07/04 08:29:20;;;;;;;4.00;1.13;;;17.10;94.80;;;;;;5047240;28;20143;-58
2022/07/04 08:31:47;;;;;;;0.75;0.50;;;17.10;94.20;;;;;;5047325;28;20048;-59
2022/07/04 08:34:17;;;;;;;1.30;0.52;;;17.00;92.60;;;;;;5045899;28;20049;-59
2022/07/04 08:36:44;;;;;;;5.38;0.80;;;17.10;94.30;;;;;;5036366;28;20495;-59
2022/07/04 08:39:11;;;;;;;1.25;0.40;;;17.20;92.80;;;;;;5047154;28;20144;-59
2022/07/04 08:41:39;;;;;;;3.90;0.60;;;17.40;93.80;;;;;;5046603;28;20072;-59
2022/07/04 08:44:07;;;;;;;3.63;0.90;;;17.50;93.30;;;;;;5047423;28;20475;-59
2022/07/04 08:46:34;;;;;;;1.13;0.40;;;17.50;93.30;;;;;;5047089;28;20145;-59
2022/07/04 08:49:01;;;;;;;1.77;0.50;;;17.60;92.30;;;;;;5046114;28;20041;-59
2022/07/04 08:51:31;;;;;;;3.00;0.50;;;17.80;90.90;;;;;;5046138;28;20110;-59
2022/07/04 08:53:58;;;;;;;0.88;0.50;;;17.90;92.10;;;;;;5046159;28;20064;-59
2022/07/04 08:59:10;;;;;;;3.28;0.57;;;18.10;91.50;;;;;;5044637;28;20068;-62
2022/07/04 09:01:38;;;;;;;1.52;0.60;;;18.10;90.90;;;;;;5047090;28;20118;-59
2022/07/04 09:04:05;;;;;;;1.00;0.43;;;18.20;90.70;;;;;;5046366;28;20041;-59
2022/07/04 09:06:32;;;;;;;4.47;0.47;;;18.20;90.20;;;;;;5045627;28;20128;-59
2022/07/04 09:08:59;;;;;;;2.28;0.50;;;18.20;89.50;;;;;;5047117;28;20139;-59
2022/07/04 09:11:26;;;;;;;1.00;0.68;;;18.30;88.70;;;;;;5047132;28;20080;-58
2022/07/04 09:13:52;;;;;;;2.28;0.60;;;18.40;89.00;;;;;;5045872;28;20071;-59
2022/07/04 09:16:19;;;;;;;1.20;0.40;;;18.50;88.90;;;;;;5046832;28;20080;-58
2022/07/04 09:18:46;;;;;;;1.27;0.50;;;18.60;88.10;;;;;;5047269;28;20045;-59
2022/07/04 09:21:13;;;;;;;1.15;0.63;;;18.70;86.40;;;;;;5046979;28;20119;-59
2022/07/04 09:23:41;;;;;;;2.92;0.50;;;18.70;84.30;;;;;;5047065;28;20128;-59
2022/07/04 09:26:19;;;;;;;1.23;0.45;;;18.80;87.30;;;;;;5050782;28;20049;-59
2022/07/04 09:28:57;;;;;;;6.03;0.60;;;19.00;83.90;;;;;;5050747;28;20045;-59
2022/07/04 09:31:25;;;;;;;1.10;0.40;;;19.10;84.80;;;;;;5051029;28;20103;-58
2022/07/04 09:33:59;;;;;;;1.23;0.47;;;19.10;85.80;;;;;;5050751;28;20045;-59
2022/07/04 09:36:30;;;;;;;2.90;1.08;;;19.30;84.60;;;;;;5050465;28;20037;-58
2022/07/04 09:39:24;;;;;;;0.60;0.30;;;19.40;83.10;;;;;;5050697;28;20448;-58
2022/07/04 09:41:51;;;;;;;2.30;0.50;;;19.50;80.50;;;;;;5047086;28;20095;-58
2022/07/04 09:44:18;;;;;;;3.35;0.70;;;19.40;80.90;;;;;;5050329;28;20055;-59
2022/07/04 09:46:45;;;;;;;2.90;0.70;;;19.40;82.40;;;;;;5050715;28;20127;-58
2022/07/04 09:49:12;;;;;;;0.40;0.40;;;19.40;83.70;;;;;;5049441;28;20052;-58
2022/07/04 09:51:44;;;;;;;4.85;0.80;;;19.60;84.10;;;;;;5050064;28;20048;-58
2022/07/04 09:54:33;;;;;;;2.67;0.65;;;19.60;82.30;;;;;;5050449;28;20071;-58
2022/07/04 09:57:01;;;;;;;3.22;1.08;;;19.70;82.50;;;;;;5047076;28;20076;-59
2022/07/04 09:59:29;;;;;;;2.47;0.68;;;19.80;82.80;;;;;;5049826;28;20099;-59
2022/07/04 10:02:09;;;;;;;5.18;0.98;;;19.70;81.80;;;;;;5049953;28;20089;-59
2022/07/04 10:04:46;;;;;;;3.63;2.40;;;19.70;79.90;;;;;;5049620;28;20090;-59
2022/07/04 10:07:40;;;;;;;5.00;0.70;;;19.70;79.90;;;;;;5048383;28;20049;-58
2022/07/04 10:10:28;;;;;;;2.70;1.00;;;19.90;80.40;;;;;;5040529;28;20468;-59
2022/07/04 10:12:59;;;;;;;1.40;0.60;;;20.10;79.00;;;;;;5049718;28;20044;-59
2022/07/04 10:15:26;;;;;;;3.60;0.43;;;20.20;79.40;;;;;;5049487;28;20084;-58
2022/07/04 10:17:53;;;;;;;5.05;0.98;;;20.10;79.20;;;;;;5049740;28;20045;-60
2022/07/04 10:20:20;;;;;;;6.18;2.03;;;20.30;79.50;;;;;;5049638;28;20560;-59
2022/07/04 10:22:47;;;;;;;1.92;0.90;;;20.20;80.90;;;;;;5048365;28;20073;-59
2022/07/04 10:25:13;;;;;;;3.05;0.80;;;20.30;78.90;;;;;;5049592;28;20088;-59
2022/07/04 10:27:40;;;;;;;3.17;0.85;;;20.30;79.90;;;;;;5049427;28;20084;-59
2022/07/04 10:30:10;;;;;;;3.13;0.75;;;20.40;79.50;;;;;;5049715;28;20500;-58
2022/07/04 10:32:37;;;;;;;3.35;0.63;;;20.40;78.10;;;;;;5049716;28;20663;-59
2022/07/04 10:35:04;;;;;;;1.75;0.95;;;20.50;77.80;;;;;;5046735;28;20124;-59
2022/07/04 10:38:02;;;;;;;3.38;0.68;;;20.40;76.20;;;;;;5049368;28;20092;-59
2022/07/04 10:40:43;;;;;;;1.92;1.00;;;20.10;77.40;;;;;;5049168;28;20059;-58
2022/07/04 10:43:43;;;;;;;1.95;0.63;;;20.40;78.20;;;;;;5049324;28;20563;-58
2022/07/04 10:46:13;;;;;;;1.83;0.63;;;20.90;77.00;;;;;;5049484;28;20131;-58
2022/07/04 10:48:52;;;;;;;1.95;0.75;;;21.20;78.00;;;;;;5049152;28;20053;-58
2022/07/04 10:51:48;;;;;;;2.67;0.57;;;21.40;76.30;;;;;;5038875;28;20045;-58
2022/07/04 10:54:32;;;;;;;3.40;0.93;;;21.40;74.50;;;;;;5042528;28;20099;-59
2022/07/04 10:57:21;;;;;;;4.72;0.60;;;21.10;76.00;;;;;;5048961;28;20127;-58
2022/07/04 10:59:56;;;;;;;3.95;1.10;;;21.10;74.40;;;;;;5049442;28;20049;-59
2022/07/04 11:02:33;;;;;;;1.88;0.80;;;21.00;73.60;;;;;;5048962;28;20080;-58
2022/07/04 11:05:13;;;;;;;1.95;0.65;;;20.80;75.90;;;;;;5040398;28;20080;-59
2022/07/04 11:07:40;;;;;;;2.13;0.90;;;20.80;73.80;;;;;;5047408;28;20055;-59
2022/07/04 11:10:21;;;;;;;1.42;0.60;;;20.90;75.20;;;;;;5047297;28;20270;-58
2022/07/04 11:12:54;;;;;;;2.33;0.68;;;20.90;74.80;;;;;;5048586;28;20118;-58
2022/07/04 11:15:28;;;;;;;1.17;0.40;;;20.70;73.30;;;;;;5040093;28;20074;-59
2022/07/04 11:17:59;;;;;;;2.37;0.70;;;20.70;75.00;;;;;;5064083;28;20380;-58
2022/07/04 11:20:27;;;;;;;3.13;0.80;;;20.70;75.10;;;;;;5039036;28;20061;-59
2022/07/04 11:23:05;;;;;;;1.00;0.50;;;20.70;76.60;;;;;;5048629;28;20472;-59
2022/07/04 11:25:32;;;;;;;7.28;0.70;;;20.70;73.60;;;;;;5047724;28;20451;-59
2022/07/04 11:28:23;;;;;;;1.75;0.57;;;20.40;75.30;;;;;;5047107;28;20087;-59
2022/07/04 11:31:12;;;;;;;1.67;0.68;;;20.50;75.90;;;;;;5042105;28;20048;-59
2022/07/04 11:33:41;;;;;;;2.45;0.65;;;20.70;77.10;;;;;;5048746;28;20158;-59
2022/07/04 11:36:20;;;;;;;2.33;0.93;;;20.70;76.60;;;;;;5048342;28;20041;-59
2022/07/04 11:38:49;;;;;;;2.40;0.75;;;20.70;75.90;;;;;;5046827;28;20064;-59
2022/07/04 11:47:18;;;;;;;4.83;0.70;;;21.00;74.30;;;;;;5048212;28;20168;-60
2022/07/04 11:49:53;;;;;;;2.05;0.57;;;21.00;72.80;;;;;;5045600;28;20052;-60
2022/07/04 11:52:26;;;;;;;6.20;0.75;;;21.20;75.20;;;;;;5047756;28;20546;-60
2022/07/04 11:55:14;;;;;;;2.75;0.68;;;21.20;75.00;;;;;;5047658;28;20045;-58
2022/07/04 11:57:43;;;;;;;3.05;0.90;;;21.30;75.30;;;;;;5047496;28;20500;-59
2022/07/04 12:00:11;;;;;;;3.35;0.82;;;21.50;74.40;;;;;;5046763;28;20040;-59
2022/07/04 12:02:46;;;;;;;2.20;1.17;;;21.60;75.50;;;;;;5047573;28;20049;-59
2022/07/04 12:05:13;;;;;;;3.30;0.95;;;21.70;75.30;;;;;;5044746;28;20052;-59
2022/07/04 12:07:41;;;;;;;2.70;0.90;;;21.70;72.40;;;;;;5047435;28;20049;-60
2022/07/04 12:10:15;;;;;;;4.13;0.85;;;21.80;73.20;;;;;;5047560;28;20049;-59
2022/07/04 12:12:58;;;;;;;4.18;0.80;;;21.90;69.50;;;;;;5047710;28;20053;-59
2022/07/04 12:15:35;;;;;;;4.40;1.50;;;22.00;70.80;;;;;;5046194;28;20067;-59
2022/07/04 12:18:02;;;;;;;1.77;0.85;;;22.00;72.40;;;;;;5046740;28;20080;-59
2022/07/04 12:20:29;;;;;;;7.20;0.98;;;21.90;72.60;;;;;;5062582;28;20049;-58
2022/07/04 12:22:58;;;;;;;5.80;0.85;;;21.70;73.40;;;;;;5046429;28;20044;-59
2022/07/04 12:25:32;;;;;;;1.95;0.93;;;21.60;73.40;;;;;;5047223;28;20064;-59
2022/07/04 12:28:07;;;;;;;0.75;0.50;;;21.40;73.00;;;;;;5047411;28;20041;-59
2022/07/04 12:30:36;;;;;;;3.70;0.63;;;21.40;73.40;;;;;;5047591;28;20049;-59
2022/07/04 12:33:09;;;;;;;2.65;0.73;;;21.20;73.10;;;;;;5043814;28;20068;-59
2022/07/04 12:35:49;;;;;;;;;;;21.20;72.80;;;;;;5047837;28;20083;-60
2022/07/04 12:38:17;;;;;;;2.60;0.77;;;21.10;71.80;;;;;;5047694;28;20012;-61
2022/07/04 12:41:00;;;;;;;3.22;0.70;;;21.30;72.70;;;;;;5047694;28;20530;-59
2022/07/04 12:43:48;;;;;;;4.15;0.90;;;21.40;71.70;;;;;;5039882;28;20067;-58
2022/07/04 12:46:25;;;;;;;3.35;1.00;;;21.50;71.50;;;;;;5047073;28;20056;-59
2022/07/04 12:48:53;;;;;;;3.05;0.80;;;21.70;71.20;;;;;;5046045;28;20118;-59
2022/07/04 12:51:22;;;;;;;3.42;0.90;;;21.90;70.70;;;;;;5047152;28;20512;-58
2022/07/04 12:53:52;;;;;;;3.22;0.73;;;22.10;70.00;;;;;;5046083;28;20120;-59
2022/07/04 12:56:34;;;;;;;4.85;1.35;;;22.10;69.90;;;;;;5047387;28;20049;-59
2022/07/04 12:59:06;;;;;;;2.80;0.70;;;22.30;70.50;;;;;;5047590;28;20557;-60
2022/07/04 13:01:38;;;;;;;4.70;0.52;;;22.50;69.90;;;;;;5049809;28;20418;-59
2022/07/04 13:04:05;;;;;;;4.32;0.90;;;22.60;70.50;;;;;;5050501;28;20075;-59
2022/07/04 13:06:32;;;;;;;3.95;0.60;;;22.70;70.40;;;;;;5050063;28;20051;-60
2022/07/04 13:08:59;;;;;;;1.23;0.60;;;22.90;68.70;;;;;;5049864;28;20049;-58
2022/07/04 13:14:11;;;;;;;3.08;0.90;;;23.20;67.50;;;;;;5051212;28;20068;-59
2022/07/04 13:16:38;;;;;;;4.55;0.93;;;23.00;69.10;;;;;;5051312;28;20393;-59
2022/07/04 13:19:06;;;;;;;3.50;0.77;;;23.10;69.50;;;;;;5051414;28;20072;-59
2022/07/04 13:21:33;;;;;;;2.42;0.70;;;23.10;68.40;;;;;;5050979;28;20455;-59